createdAt,value
2023-08-11T00:01:35.180Z,1.10
2023-08-11T00:05:39.531Z,0.97
2023-08-11T00:09:43.312Z,1.03
2023-08-11T00:13:48.602Z,1.60
2023-08-11T00:18:01.771Z,1.20
2023-08-11T00:22:07.353Z,1.20
2023-08-11T00:26:16.579Z,0.90
2023-08-11T00:30:21.700Z,1.23
2023-08-11T00:34:28.907Z,1.27
2023-08-11T00:38:53.209Z,1.07
2023-08-11T00:42:58.123Z,1.07
2023-08-11T00:47:10.536Z,1.00
2023-08-11T00:51:17.683Z,1.43
2023-08-11T00:55:24.524Z,1.20
2023-08-11T00:59:29.316Z,1.27
2023-08-11T01:03:35.711Z,1.23
2023-08-11T01:07:52.407Z,1.30
2023-08-11T01:12:17.391Z,1.20
2023-08-11T01:16:23.226Z,1.10
2023-08-11T01:20:52.072Z,1.00
2023-08-11T01:24:58.333Z,1.37
2023-08-11T01:29:02.645Z,1.13
2023-08-11T01:33:07.088Z,1.20
2023-08-11T01:37:13.671Z,1.10
2023-08-11T01:41:20.072Z,0.87
2023-08-11T01:46:05.405Z,1.10
2023-08-11T01:50:11.148Z,1.27
2023-08-11T01:54:16.128Z,1.10
2023-08-11T01:58:21.838Z,1.10
2023-08-11T02:02:25.763Z,1.30
2023-08-11T02:06:31.558Z,1.10
2023-08-11T02:10:35.332Z,1.27
2023-08-11T02:14:41.716Z,1.20
2023-08-11T02:18:45.623Z,1.30
2023-08-11T02:22:53.906Z,1.30
2023-08-11T02:26:58.152Z,1.37
2023-08-11T02:31:19.774Z,1.13
2023-08-11T02:35:23.851Z,1.20
2023-08-11T02:39:40.389Z,1.10
2023-08-11T02:43:44.330Z,1.00
2023-08-11T02:47:49.386Z,1.00
2023-08-11T02:51:54.638Z,1.17
2023-08-11T02:55:58.441Z,1.00
2023-08-11T03:00:02.530Z,0.90
2023-08-11T03:04:08.150Z,1.00
2023-08-11T03:09:03.239Z,1.20
2023-08-11T03:13:07.708Z,1.07
2023-08-11T03:17:16.621Z,0.90
2023-08-11T03:21:21.826Z,0.90
2023-08-11T03:25:33.962Z,0.87
2023-08-11T03:29:37.980Z,1.10
2023-08-11T03:33:41.975Z,1.20
2023-08-11T03:37:50.581Z,1.10
2023-08-11T03:41:58.030Z,1.10
2023-08-11T03:46:02.575Z,1.30
2023-08-11T03:50:20.779Z,0.90
2023-08-11T03:54:35.629Z,1.33
2023-08-11T03:58:49.528Z,1.23
2023-08-11T04:02:53.375Z,1.17
2023-08-11T04:06:59.104Z,1.20
2023-08-11T04:11:07.917Z,1.00
2023-08-11T04:15:23.404Z,1.03
2023-08-11T04:19:27.308Z,0.83
2023-08-11T04:23:32.943Z,1.10
2023-08-11T04:27:38.510Z,0.80
2023-08-11T04:31:42.884Z,0.80
2023-08-11T04:35:51.093Z,1.10
2023-08-11T04:40:21.622Z,0.90
2023-08-11T04:44:29.188Z,1.00
2023-08-11T04:48:37.050Z,0.80
2023-08-11T04:52:41.061Z,0.80
2023-08-11T04:56:50.489Z,0.80
2023-08-11T05:00:58.452Z,0.95
2023-08-11T05:05:02.298Z,0.80
2023-08-11T05:09:06.080Z,0.80
2023-08-11T05:13:09.849Z,0.68
2023-08-11T05:17:30.297Z,0.80
2023-08-11T05:21:34.032Z,0.80
2023-08-11T05:25:58.323Z,0.90
2023-08-11T05:30:04.670Z,0.60
2023-08-11T05:34:11.570Z,0.80
2023-08-11T05:38:15.337Z,0.80
2023-08-11T05:42:25.255Z,0.82
2023-08-11T05:46:30.939Z,0.93
2023-08-11T05:50:36.392Z,0.70
2023-08-11T05:54:41.881Z,0.70
2023-08-11T05:58:45.840Z,0.90
2023-08-11T06:02:50.101Z,0.70
2023-08-11T06:06:57.810Z,0.60
2023-08-11T06:11:01.537Z,0.80
2023-08-11T06:15:06.101Z,0.68
2023-08-11T06:19:09.727Z,0.90
2023-08-11T06:23:16.031Z,0.70
2023-08-11T06:27:19.691Z,0.90
2023-08-11T06:31:24.634Z,1.00
2023-08-11T06:35:28.310Z,0.80
2023-08-11T06:39:36.227Z,0.80
2023-08-11T06:43:40.175Z,0.70
2023-08-11T06:47:43.965Z,0.83
2023-08-11T06:51:47.954Z,1.00
2023-08-11T06:55:53.707Z,0.90
2023-08-11T07:00:02.207Z,1.00
2023-08-11T07:04:17.187Z,0.97
2023-08-11T07:08:21.194Z,1.03
2023-08-11T07:12:51.928Z,0.90
2023-08-11T07:16:55.539Z,1.17
2023-08-11T07:20:59.414Z,0.70
2023-08-11T07:25:03.247Z,0.80
2023-08-11T07:29:08.521Z,1.03
2023-08-11T07:33:12.085Z,0.90
2023-08-11T07:38:11.402Z,1.00
2023-08-11T07:42:16.360Z,1.10
2023-08-11T07:46:23.724Z,1.00
2023-08-11T07:50:27.571Z,1.10
2023-08-11T07:54:36.803Z,1.00
2023-08-11T07:58:40.922Z,0.90
2023-08-11T08:02:46.840Z,1.00
2023-08-11T08:06:50.938Z,0.70
2023-08-11T08:10:54.549Z,0.77
2023-08-11T08:15:10.616Z,0.80
2023-08-11T08:19:18.495Z,0.60
2023-08-11T08:23:38.021Z,0.90
2023-08-11T08:27:43.183Z,0.87
2023-08-11T08:31:55.092Z,0.97
2023-08-11T08:36:00.108Z,0.70
2023-08-11T08:40:05.210Z,0.73
2023-08-11T08:44:09.176Z,0.70
2023-08-11T08:48:20.762Z,0.70
2023-08-11T08:52:25.845Z,0.70
2023-08-11T08:56:30.090Z,0.83
2023-08-11T09:00:34.524Z,1.00
2023-08-11T09:05:33.311Z,0.83
2023-08-11T09:09:38.791Z,0.90
2023-08-11T09:13:51.629Z,0.80
2023-08-11T09:17:55.300Z,0.70
2023-08-11T09:22:28.035Z,0.70
2023-08-11T09:26:33.864Z,0.70
2023-08-11T09:31:06.732Z,0.90
2023-08-11T09:35:11.143Z,0.80
2023-08-11T09:39:22.042Z,0.77
2023-08-11T09:43:30.225Z,0.90
2023-08-11T09:47:49.031Z,0.60
2023-08-11T09:51:56.809Z,0.70
2023-08-11T09:56:01.195Z,0.77
2023-08-11T10:00:12.980Z,0.73
2023-08-11T10:04:26.098Z,0.70
2023-08-11T10:08:32.219Z,0.70
2023-08-11T10:12:41.830Z,0.80
2023-08-11T10:16:47.717Z,0.90
2023-08-11T10:20:52.509Z,0.90
2023-08-11T10:24:56.457Z,0.70
2023-08-11T10:29:00.901Z,0.80
2023-08-11T10:33:11.411Z,0.80
2023-08-11T10:37:16.901Z,0.73
2023-08-11T10:41:24.374Z,0.63
2023-08-11T10:45:29.772Z,0.87
2023-08-11T10:49:37.809Z,0.63
2023-08-11T10:53:42.524Z,0.70
2023-08-11T10:58:13.289Z,0.60
2023-08-11T11:02:17.850Z,0.70
2023-08-11T11:06:22.949Z,0.67
2023-08-11T11:10:39.685Z,0.70
2023-08-11T11:15:16.660Z,0.60
2023-08-11T11:19:29.348Z,0.90
2023-08-11T11:23:35.988Z,0.70
2023-08-11T11:27:43.849Z,0.77
2023-08-11T11:31:47.640Z,0.70
2023-08-11T11:35:51.579Z,0.70
2023-08-11T11:40:22.222Z,0.70
2023-08-11T11:44:26.043Z,0.87
2023-08-11T11:48:31.982Z,0.60
2023-08-11T11:52:37.936Z,0.70
2023-08-11T11:57:02.162Z,0.80
2023-08-11T12:01:34.332Z,0.80
2023-08-11T12:05:38.508Z,1.03
2023-08-11T12:10:08.145Z,1.10
2023-08-11T12:14:15.099Z,0.90
2023-08-11T12:18:18.891Z,0.80
2023-08-11T12:22:22.930Z,0.80
2023-08-11T12:26:29.544Z,0.90
2023-08-11T12:30:35.071Z,0.80
2023-08-11T12:34:39.382Z,0.80
2023-08-11T12:38:43.273Z,0.67
2023-08-11T12:42:51.371Z,0.90
2023-08-11T12:46:57.338Z,1.03
2023-08-11T12:51:06.382Z,0.73
2023-08-11T12:55:10.969Z,0.70
2023-08-11T12:59:41.731Z,1.10
2023-08-11T13:03:52.912Z,1.00
2023-08-11T13:07:56.674Z,0.97
2023-08-11T13:12:00.306Z,1.00
2023-08-11T13:16:12.394Z,0.80
2023-08-11T13:20:17.542Z,0.80
2023-08-11T13:24:26.219Z,0.77
2023-08-11T13:28:30.185Z,0.90
2023-08-11T13:32:39.238Z,0.95
2023-08-11T13:36:44.393Z,0.80
2023-08-11T13:41:19.589Z,1.00
2023-08-11T13:45:23.300Z,0.87
2023-08-11T13:49:59.960Z,1.00
2023-08-11T13:54:07.351Z,0.80
2023-08-11T13:58:10.943Z,0.90
2023-08-11T14:02:19.249Z,0.70
2023-08-11T14:06:23.179Z,0.70
2023-08-11T14:10:30.428Z,0.70
2023-08-11T14:14:34.631Z,0.60
2023-08-11T14:19:06.803Z,0.90
2023-08-11T14:23:10.505Z,0.68
2023-08-11T14:27:15.696Z,0.70
2023-08-11T14:31:47.240Z,0.70
2023-08-11T14:35:51.270Z,0.80
2023-08-11T14:39:55.260Z,0.68
2023-08-11T14:44:00.774Z,0.90
2023-08-11T14:48:07.869Z,0.77
2023-08-11T14:52:12.699Z,0.80
2023-08-11T14:56:17.064Z,0.90
2023-08-11T15:00:22.994Z,0.63
2023-08-11T15:04:28.108Z,0.63
2023-08-11T15:08:39.581Z,0.60
2023-08-11T15:12:44.156Z,0.98
2023-08-11T15:16:49.675Z,0.70
2023-08-11T15:20:53.621Z,0.60
2023-08-11T15:25:01.542Z,0.70
2023-08-11T15:29:06.786Z,0.70
2023-08-11T15:33:12.096Z,0.80
2023-08-11T15:37:18.122Z,0.70
2023-08-11T15:41:22.102Z,0.60
2023-08-11T15:45:27.978Z,0.60
2023-08-11T15:49:33.369Z,0.50
2023-08-11T15:54:07.026Z,0.70
2023-08-11T15:58:10.887Z,0.70
2023-08-11T16:02:15.147Z,0.70
2023-08-11T16:06:46.057Z,0.80
2023-08-11T16:10:51.549Z,0.60
2023-08-11T16:14:58.454Z,0.80
2023-08-11T16:19:02.320Z,0.60
2023-08-11T16:23:35.296Z,0.60
2023-08-11T16:27:39.000Z,0.60
2023-08-11T16:32:07.663Z,0.70
2023-08-11T16:36:12.862Z,0.50
2023-08-11T16:40:21.652Z,0.77
2023-08-11T16:44:25.357Z,0.80
2023-08-11T16:48:58.961Z,0.70
2023-08-11T16:53:02.837Z,0.57
2023-08-11T16:57:36.049Z,0.73
2023-08-11T17:01:40.669Z,0.60
2023-08-11T17:05:44.429Z,0.60
2023-08-11T17:09:58.958Z,0.70
2023-08-11T17:14:04.920Z,0.70
2023-08-11T17:18:17.420Z,0.77
2023-08-11T17:22:20.953Z,0.70
2023-08-11T17:26:37.020Z,0.70
2023-08-11T17:30:44.231Z,0.63
2023-08-11T17:35:01.371Z,1.30
2023-08-11T17:39:05.600Z,1.03
2023-08-11T17:43:16.828Z,1.10
2023-08-11T17:47:23.974Z,0.70
2023-08-11T17:51:28.467Z,1.07
2023-08-11T17:55:32.002Z,0.83
2023-08-11T18:00:02.717Z,0.53
2023-08-11T18:04:18.003Z,0.70
2023-08-11T18:08:23.452Z,0.70
2023-08-11T18:12:27.521Z,0.83
2023-08-11T18:16:37.380Z,0.90
2023-08-11T18:20:43.006Z,0.80
2023-08-11T18:24:50.860Z,0.63
2023-08-11T18:28:54.437Z,0.73
2023-08-11T18:32:58.811Z,1.00
2023-08-11T18:37:07.520Z,0.80
2023-08-11T18:41:11.341Z,0.80
2023-08-11T18:45:17.506Z,0.80
2023-08-11T18:49:21.680Z,0.80
2023-08-11T18:53:27.627Z,1.10
2023-08-11T18:57:57.593Z,0.70
2023-08-11T19:02:01.895Z,0.80
2023-08-11T19:06:06.204Z,0.97
2023-08-11T19:10:18.861Z,0.70
2023-08-11T19:14:22.700Z,0.80
2023-08-11T19:18:27.643Z,0.93
2023-08-11T19:22:31.580Z,0.70
2023-08-11T19:26:36.925Z,0.50
2023-08-11T19:30:43.399Z,0.60
2023-08-11T19:34:47.332Z,0.60
2023-08-11T19:38:51.259Z,0.90
2023-08-11T19:42:56.567Z,0.80
2023-08-11T19:47:03.126Z,0.70
2023-08-11T19:51:07.840Z,0.80
2023-08-11T19:55:38.356Z,0.70
2023-08-11T19:59:43.688Z,0.90
2023-08-11T20:03:49.002Z,0.80
2023-08-11T20:07:55.667Z,1.00
2023-08-11T20:11:59.490Z,0.90
2023-08-11T20:16:11.639Z,1.00
2023-08-11T20:20:16.071Z,0.83
2023-08-11T20:24:31.432Z,0.90
2023-08-11T20:28:35.106Z,0.80
2023-08-11T20:32:46.988Z,1.03
2023-08-11T20:36:52.639Z,1.00
2023-08-11T20:41:00.290Z,1.10
2023-08-11T20:45:10.378Z,0.97
2023-08-11T20:49:15.527Z,0.90
2023-08-11T20:59:26.249Z,1.00
2023-08-11T21:03:30.822Z,1.33
2023-08-11T21:07:35.963Z,1.23
2023-08-11T21:11:42.259Z,1.00
2023-08-11T21:15:46.464Z,1.20
2023-08-11T21:19:50.235Z,1.07
2023-08-11T21:23:55.221Z,1.13
2023-08-11T21:28:06.426Z,1.17
2023-08-11T21:32:10.050Z,1.40
2023-08-11T21:36:22.023Z,1.27
2023-08-11T21:40:27.394Z,1.20
2023-08-11T21:44:41.133Z,1.20
2023-08-11T21:48:45.171Z,0.90
2023-08-11T21:52:49.245Z,1.00
2023-08-11T21:56:54.303Z,1.10
2023-08-11T22:00:58.030Z,1.20
2023-08-11T22:05:01.928Z,1.20
2023-08-11T22:09:10.252Z,1.30
2023-08-11T22:13:16.138Z,1.43
2023-08-11T22:17:21.253Z,1.33
2023-08-11T22:21:25.073Z,0.97
2023-08-11T22:25:28.793Z,1.43
2023-08-11T22:29:33.782Z,1.10
2023-08-11T22:33:48.761Z,1.30
2023-08-11T22:37:52.397Z,1.70
2023-08-11T22:41:56.580Z,1.30
2023-08-11T22:46:02.452Z,1.10
2023-08-11T22:50:17.531Z,1.43
2023-08-11T22:54:27.281Z,1.40
2023-08-11T22:58:30.879Z,1.17
2023-08-11T23:02:36.204Z,1.10
2023-08-11T23:06:42.424Z,1.20
2023-08-11T23:10:46.125Z,1.10
2023-08-11T23:14:51.911Z,1.20
2023-08-11T23:18:57.112Z,0.90
2023-08-11T23:23:13.591Z,0.87
2023-08-11T23:27:18.549Z,1.00
2023-08-11T23:31:28.797Z,1.10
2023-08-11T23:35:39.765Z,0.90
2023-08-11T23:39:44.955Z,1.00
2023-08-11T23:43:49.462Z,0.90
2023-08-11T23:47:53.376Z,1.17
2023-08-11T23:52:00.971Z,0.90
2023-08-11T23:56:06.486Z,0.90
